Main page
METAR-TAF:

METAR-TAF

Airports :

RAF Linton-on-Ouse

Linton-on-Ouse, England

latitude: 54-03N, longitude: 001-15W, elevation: 16 m

Current weather observation

The report was made 58 minutes ago, at 03:50 UTC
Wind 4 kt from the Southwest
Temperature 16°C
Humidity 82%
Pressure 1014 hPa
Visibility 10 km or more

METAR: EGXU 220350Z AUTO 23004KT 9999 // SCT030/// SCT037/// BKN044/// 16/13 Q1014

Time: 05:48 (04:48 UTC)


TAF: missing

Weather observations and forecasts of more than 4000 airports (METAR and TAF reports).

The available stations are represented by yellow and red dots on the map.

Hover mouse over dot to see the name of the station.

Then click to see weather observations and forecasts.

To change the map : click on the green buttons with a black cross to zoom in, on the green button with a dash to zoom out, or on the green arrows for adjacent maps.


METAR-TAF: